Time;durP1;ratioP1;P1;durP2;ratioP2;P2;SDS_P1;SDS_P2;PMS_P1;PMS_P2;Temp;Humidity;BMP_temperature;BMP_pressure;BME280_temperature;BME280_humidity;BME280_pressure;Samples;Min_cycle;Max_cycle;Signal;HPM_P1;HPM_P2
2022/03/01 00:01:44;;;;;;;16.13;14.48;;;2.60;96.50;;;;;;5105048;28;20059;-73
2022/03/01 00:04:10;;;;;;;16.80;15.00;;;2.60;96.60;;;;;;5113126;28;20083;-72
2022/03/01 00:06:36;;;;;;;16.10;14.40;;;2.70;96.50;;;;;;5102237;28;20048;-74
2022/03/01 00:09:01;;;;;;;15.80;14.18;;;2.60;96.70;;;;;;5092328;28;20048;-74
2022/03/01 00:11:27;;;;;;;16.05;14.35;;;2.60;96.50;;;;;;5101385;28;20047;-73
2022/03/01 00:13:53;;;;;;;15.68;14.07;;;2.60;96.40;;;;;;5113480;28;20040;-73
2022/03/01 00:16:19;;;;;;;15.85;14.10;;;2.60;96.60;;;;;;5100361;28;20481;-73
2022/03/01 00:18:46;;;;;;;15.93;14.32;;;2.60;96.70;;;;;;5092819;28;20047;-73
2022/03/01 00:21:12;;;;;;;15.68;13.88;;;2.60;96.70;;;;;;5097554;28;20085;-72
2022/03/01 00:23:38;;;;;;;16.88;14.85;;;2.60;96.60;;;;;;5092988;28;20523;-74
2022/03/01 00:26:04;;;;;;;16.42;14.73;;;2.60;96.60;;;;;;5095984;28;20036;-73
2022/03/01 00:28:30;;;;;;;16.48;14.77;;;2.60;96.80;;;;;;5091629;28;20231;-73
2022/03/01 00:30:56;;;;;;;17.20;14.98;;;2.50;97.10;;;;;;5093202;28;20083;-73
2022/03/01 00:33:22;;;;;;;16.83;14.35;;;2.50;97.30;;;;;;5092100;28;20477;-73
2022/03/01 00:35:48;;;;;;;17.52;15.30;;;2.50;97.40;;;;;;5093630;28;20123;-73
2022/03/01 00:38:13;;;;;;;16.90;15.10;;;2.40;97.50;;;;;;5092240;28;20435;-73
2022/03/01 00:40:39;;;;;;;17.70;15.35;;;2.40;97.60;;;;;;5094039;28;20400;-73
2022/03/01 00:43:05;;;;;;;17.05;14.80;;;2.40;97.70;;;;;;5091919;28;20495;-73
2022/03/01 00:45:31;;;;;;;17.27;15.43;;;2.40;98.10;;;;;;5093611;28;20048;-73
2022/03/01 00:47:56;;;;;;;17.45;15.57;;;2.40;98.20;;;;;;5092349;28;20043;-73
2022/03/01 00:50:22;;;;;;;16.77;15.05;;;2.30;98.60;;;;;;5092274;28;20047;-73
2022/03/01 00:52:48;;;;;;;18.67;15.27;;;2.30;98.90;;;;;;5090046;28;20139;-73
2022/03/01 00:55:14;;;;;;;16.67;14.60;;;2.30;99.30;;;;;;5092345;28;20556;-73
2022/03/01 00:57:39;;;;;;;16.42;14.73;;;2.30;99.60;;;;;;5092065;28;20123;-73
2022/03/01 01:00:07;;;;;;;16.85;15.05;;;2.30;99.70;;;;;;5092627;28;20401;-73
2022/03/01 01:02:34;;;;;;;18.85;16.20;;;2.30;99.90;;;;;;5098951;28;20098;-73
2022/03/01 01:05:00;;;;;;;18.70;15.88;;;2.30;99.90;;;;;;5092751;28;20056;-73
2022/03/01 01:07:26;;;;;;;19.20;16.23;;;2.20;99.90;;;;;;5093550;28;20424;-73
2022/03/01 01:09:52;;;;;;;18.30;16.33;;;2.20;99.90;;;;;;5096713;28;20431;-74
2022/03/01 01:12:18;;;;;;;18.65;16.10;;;2.20;99.90;;;;;;5113876;28;20096;-72
2022/03/01 01:14:44;;;;;;;19.30;16.80;;;2.20;99.90;;;;;;5116879;28;20039;-73
2022/03/01 01:17:10;;;;;;;18.25;16.33;;;2.20;99.90;;;;;;5099679;28;20122;-73
2022/03/01 01:19:36;;;;;;;20.05;17.45;;;2.20;99.90;;;;;;5095804;28;20393;-73
2022/03/01 01:24:47;;;;;;;19.08;16.30;;;2.20;99.90;;;;;;5096396;28;20047;-73
2022/03/01 01:27:13;;;;;;;17.77;15.82;;;2.10;99.90;;;;;;5110611;28;20051;-73
2022/03/01 01:29:38;;;;;;;17.75;15.85;;;2.10;99.90;;;;;;5095418;28;20108;-73
2022/03/01 01:32:05;;;;;;;17.65;15.75;;;2.10;99.90;;;;;;5110688;28;20043;-73
2022/03/01 01:34:30;;;;;;;18.67;16.55;;;2.10;99.90;;;;;;5116036;28;20093;-73
2022/03/01 01:36:56;;;;;;;19.05;16.98;;;2.10;99.90;;;;;;5113490;27;20496;-74
2022/03/01 01:39:22;;;;;;;19.25;16.55;;;2.00;99.90;;;;;;5111300;28;20039;-72
2022/03/01 01:41:47;;;;;;;18.98;16.67;;;2.00;99.90;;;;;;5115220;28;20135;-73
2022/03/01 01:44:13;;;;;;;18.33;15.73;;;2.00;99.90;;;;;;5114572;28;20043;-73
2022/03/01 01:46:39;;;;;;;17.83;15.82;;;2.10;99.90;;;;;;5095645;28;20217;-73
2022/03/01 01:49:04;;;;;;;18.70;16.67;;;2.00;99.90;;;;;;5095441;28;20048;-73
2022/03/01 01:51:30;;;;;;;20.45;16.42;;;2.00;99.90;;;;;;5094354;28;20048;-73
2022/03/01 01:53:56;;;;;;;19.80;16.13;;;2.00;99.90;;;;;;5095761;28;20485;-73
2022/03/01 01:56:22;;;;;;;18.98;16.48;;;2.00;99.90;;;;;;5102256;28;20046;-72
2022/03/01 01:58:48;;;;;;;19.52;16.85;;;1.90;99.90;;;;;;5095505;28;20052;-73
2022/03/01 02:01:14;;;;;;;18.90;16.90;;;1.90;99.90;;;;;;5103324;28;20130;-73
2022/03/01 02:03:39;;;;;;;18.95;16.95;;;1.90;99.90;;;;;;5115413;28;20040;-73
2022/03/01 02:06:05;;;;;;;18.98;16.98;;;1.90;99.90;;;;;;5096638;28;20040;-73
2022/03/01 02:08:32;;;;;;;19.92;17.85;;;1.90;99.90;;;;;;5107783;28;20054;-73
2022/03/01 02:10:58;;;;;;;19.55;17.45;;;1.80;99.90;;;;;;5100421;28;20119;-73
2022/03/01 02:13:24;;;;;;;19.85;17.65;;;1.80;99.90;;;;;;5096197;28;20052;-73
2022/03/01 02:15:50;;;;;;;19.33;17.27;;;1.80;99.90;;;;;;5094037;28;20422;-73
2022/03/01 02:18:17;;;;;;;18.55;16.45;;;1.70;99.90;;;;;;5095382;28;20036;-73
2022/03/01 02:20:43;;;;;;;19.70;17.30;;;1.70;99.90;;;;;;5104374;28;20044;-73
2022/03/01 02:23:09;;;;;;;18.45;16.52;;;1.70;99.90;;;;;;5103815;28;20484;-73
2022/03/01 02:25:35;;;;;;;18.95;16.95;;;1.70;99.90;;;;;;5115023;28;20040;-73
2022/03/01 02:28:01;;;;;;;19.73;17.63;;;1.70;99.90;;;;;;5106919;28;20093;-73
2022/03/01 02:30:27;;;;;;;20.88;17.80;;;1.60;99.90;;;;;;5097238;28;20047;-72
2022/03/01 02:32:52;;;;;;;19.75;17.65;;;1.70;99.90;;;;;;5100107;28;20082;-73
2022/03/01 02:35:19;;;;;;;19.98;17.88;;;1.60;99.90;;;;;;5115339;27;20472;-73
2022/03/01 02:37:45;;;;;;;20.90;18.20;;;1.60;99.90;;;;;;5104435;28;20051;-73
2022/03/01 02:40:12;;;;;;;21.25;18.45;;;1.60;99.90;;;;;;5100382;28;20039;-73
2022/03/01 02:42:40;;;;;;;21.75;18.95;;;1.60;99.90;;;;;;5111111;28;20497;-73
2022/03/01 02:45:09;;;;;;;19.90;17.73;;;1.60;99.90;;;;;;5094891;28;20044;-73
2022/03/01 02:47:35;;;;;;;22.15;18.88;;;1.60;99.90;;;;;;5093854;28;20059;-73
2022/03/01 02:50:01;;;;;;;21.35;19.05;;;1.60;99.90;;;;;;5093607;28;20522;-73
2022/03/01 02:52:26;;;;;;;20.90;18.58;;;1.60;99.90;;;;;;5094711;28;20047;-73
2022/03/01 02:54:52;;;;;;;20.67;18.45;;;1.60;99.90;;;;;;5094171;28;20036;-73
2022/03/01 02:57:18;;;;;;;20.90;18.25;;;1.60;99.90;;;;;;5101776;28;20051;-73
2022/03/01 02:59:45;;;;;;;20.48;18.38;;;1.60;99.90;;;;;;5093260;28;20044;-73
2022/03/01 03:02:12;;;;;;;21.17;18.38;;;1.60;99.90;;;;;;5094699;28;20089;-73
2022/03/01 03:04:39;;;;;;;19.65;17.60;;;1.60;99.90;;;;;;5093916;28;20104;-73
2022/03/01 03:07:05;;;;;;;20.92;17.98;;;1.60;99.90;;;;;;5111111;28;20047;-74
2022/03/01 03:09:31;;;;;;;21.38;18.88;;;1.60;99.90;;;;;;5104135;28;20043;-73
2022/03/01 03:11:57;;;;;;;20.35;17.98;;;1.60;99.90;;;;;;5094513;28;20048;-73
2022/03/01 03:14:23;;;;;;;20.65;18.45;;;1.60;99.90;;;;;;5094337;28;20070;-73
2022/03/01 03:16:49;;;;;;;21.15;18.08;;;1.60;99.90;;;;;;5105754;28;20484;-73
2022/03/01 03:19:15;;;;;;;20.90;18.20;;;1.60;99.90;;;;;;5111452;28;20127;-73
2022/03/01 03:21:45;;;;;;;20.80;18.58;;;1.60;99.90;;;;;;5097264;28;20067;-73
2022/03/01 03:24:11;;;;;;;21.33;18.33;;;1.60;99.90;;;;;;5073823;28;20036;-73
2022/03/01 03:26:38;;;;;;;22.17;18.50;;;1.60;99.90;;;;;;5093123;28;20097;-73
2022/03/01 03:29:05;;;;;;;20.67;18.48;;;1.60;99.90;;;;;;5093607;28;20044;-73
2022/03/01 03:31:31;;;;;;;20.60;17.90;;;1.60;99.90;;;;;;5093368;28;20043;-73
2022/03/01 03:33:57;;;;;;;20.50;17.77;;;1.60;99.90;;;;;;5093274;28;20055;-73
2022/03/01 03:36:22;;;;;;;19.85;17.75;;;1.50;99.90;;;;;;5104261;28;20043;-73
2022/03/01 03:38:48;;;;;;;20.42;18.30;;;1.50;99.90;;;;;;5113613;28;20040;-73
2022/03/01 03:41:14;;;;;;;21.27;19.08;;;1.50;99.90;;;;;;5103864;28;20093;-73
2022/03/01 03:43:39;;;;;;;23.13;19.25;;;1.40;99.90;;;;;;5093232;28;20048;-73
2022/03/01 03:46:05;;;;;;;21.63;19.27;;;1.40;99.90;;;;;;5110851;28;20445;-73
2022/03/01 03:48:31;;;;;;;22.73;19.08;;;1.40;99.90;;;;;;5114024;28;20108;-73
2022/03/01 03:50:56;;;;;;;21.30;19.10;;;1.30;99.90;;;;;;5097066;28;20382;-73
2022/03/01 03:53:23;;;;;;;21.58;19.27;;;1.30;99.90;;;;;;5093277;28;20036;-73
2022/03/01 03:55:49;;;;;;;22.02;19.23;;;1.20;99.90;;;;;;5100080;28;20044;-73
2022/03/01 03:58:14;;;;;;;21.13;18.92;;;1.20;99.90;;;;;;5093184;28;20393;-73
2022/03/01 04:00:40;;;;;;;21.90;19.52;;;1.20;99.90;;;;;;5092143;28;20048;-73
2022/03/01 04:03:07;;;;;;;21.83;19.52;;;1.20;99.90;;;;;;5093075;28;20417;-73
2022/03/01 04:05:32;;;;;;;22.75;19.85;;;1.20;99.90;;;;;;5093404;28;20040;-73
2022/03/01 04:07:58;;;;;;;22.08;19.33;;;1.20;99.90;;;;;;5092730;28;20288;-73
2022/03/01 04:10:24;;;;;;;21.95;19.67;;;1.20;99.90;;;;;;5093466;28;20051;-73
2022/03/01 04:12:49;;;;;;;21.45;19.25;;;1.20;99.90;;;;;;5098798;28;20461;-73
2022/03/01 04:15:15;;;;;;;23.50;19.13;;;1.20;99.90;;;;;;5093292;28;20055;-73
2022/03/01 04:17:41;;;;;;;21.45;18.55;;;1.20;99.90;;;;;;5092507;28;20048;-73
2022/03/01 04:20:08;;;;;;;21.63;19.05;;;1.30;99.90;;;;;;5109585;28;20096;-73
2022/03/01 04:22:34;;;;;;;20.88;18.67;;;1.30;99.90;;;;;;5094907;28;20489;-73
2022/03/01 04:25:00;;;;;;;22.20;19.35;;;1.30;99.90;;;;;;5092302;28;20051;-73
2022/03/01 04:27:26;;;;;;;22.85;19.25;;;1.30;99.90;;;;;;5092765;28;20055;-73
2022/03/01 04:29:52;;;;;;;22.83;19.05;;;1.40;99.90;;;;;;5100511;28;20051;-73
2022/03/01 04:32:18;;;;;;;21.48;18.80;;;1.30;99.90;;;;;;5099770;28;20130;-73
2022/03/01 04:34:44;;;;;;;21.17;18.88;;;1.40;99.90;;;;;;5092061;28;20096;-73
2022/03/01 04:37:10;;;;;;;21.23;19.00;;;1.40;99.90;;;;;;5092864;28;20498;-73
2022/03/01 04:39:36;;;;;;;20.25;18.13;;;1.40;99.90;;;;;;5096674;28;20043;-73
2022/03/01 04:42:04;;;;;;;20.90;18.73;;;1.40;99.90;;;;;;5104481;28;20119;-73
2022/03/01 04:44:32;;;;;;;21.42;19.15;;;1.40;99.90;;;;;;5090852;28;20039;-73
2022/03/01 04:46:57;;;;;;;20.83;18.50;;;1.50;99.90;;;;;;5095962;28;20168;-74
2022/03/01 04:49:23;;;;;;;21.95;19.58;;;1.40;99.90;;;;;;5092389;28;20081;-74
2022/03/01 04:51:49;;;;;;;21.70;19.33;;;1.50;99.90;;;;;;5112428;28;20053;-73
2022/03/01 04:54:14;;;;;;;21.48;19.17;;;1.40;99.90;;;;;;5098090;28;20476;-73
2022/03/01 04:56:40;;;;;;;22.25;19.45;;;1.50;99.90;;;;;;5091781;28;20401;-74
2022/03/01 04:59:06;;;;;;;22.65;19.98;;;1.50;99.90;;;;;;5091857;28;20078;-74
2022/03/01 05:01:31;;;;;;;22.73;19.48;;;1.50;99.90;;;;;;5092128;28;20386;-74
2022/03/01 05:03:57;;;;;;;21.63;19.27;;;1.50;99.90;;;;;;5091367;28;20075;-73
2022/03/01 05:06:23;;;;;;;20.95;18.60;;;1.60;99.90;;;;;;5092117;28;20117;-73
2022/03/01 05:08:48;;;;;;;22.02;18.90;;;1.60;99.90;;;;;;5091833;28;20151;-74
2022/03/01 05:11:15;;;;;;;22.17;19.88;;;1.50;99.90;;;;;;5095124;28;20061;-73
2022/03/01 05:13:40;;;;;;;23.17;19.55;;;1.50;99.90;;;;;;5102413;28;20036;-74
2022/03/01 05:16:06;;;;;;;22.15;19.73;;;1.60;99.90;;;;;;5105643;28;20116;-73
2022/03/01 05:18:32;;;;;;;21.40;19.20;;;1.60;99.90;;;;;;5092533;28;20040;-73
2022/03/01 05:20:57;;;;;;;22.40;19.20;;;1.60;99.90;;;;;;5091867;28;20051;-73
2022/03/01 05:23:23;;;;;;;22.52;19.52;;;1.60;99.90;;;;;;5092672;28;20528;-73
2022/03/01 05:25:49;;;;;;;22.75;19.73;;;1.60;99.90;;;;;;5091333;28;20048;-73
2022/03/01 05:28:14;;;;;;;22.27;19.52;;;1.60;99.90;;;;;;5092187;28;20044;-74
2022/03/01 05:30:40;;;;;;;22.27;19.90;;;1.60;99.90;;;;;;5090932;28;20465;-74
2022/03/01 05:33:07;;;;;;;23.20;20.63;;;1.50;99.90;;;;;;5091652;28;20058;-73
2022/03/01 05:35:33;;;;;;;22.42;19.65;;;1.60;99.90;;;;;;5092171;28;20166;-74
2022/03/01 05:37:59;;;;;;;23.75;20.75;;;1.70;99.90;;;;;;5090104;28;20127;-74
2022/03/01 05:40:27;;;;;;;22.23;19.65;;;1.60;99.90;;;;;;5091597;28;20040;-73
2022/03/01 05:42:53;;;;;;;22.77;20.08;;;1.70;99.90;;;;;;5091593;28;20079;-73
2022/03/01 05:45:19;;;;;;;25.02;20.58;;;1.60;99.90;;;;;;5092191;28;20086;-74
2022/03/01 05:47:46;;;;;;;23.15;20.65;;;1.60;99.90;;;;;;5091859;28;20052;-74
2022/03/01 05:50:14;;;;;;;25.05;19.90;;;1.60;99.90;;;;;;5091570;28;20047;-73
2022/03/01 05:52:40;;;;;;;24.27;20.67;;;1.60;99.90;;;;;;5072259;28;20091;-73
2022/03/01 05:55:08;;;;;;;22.98;19.80;;;1.60;99.90;;;;;;5075102;28;20044;-73
2022/03/01 05:57:35;;;;;;;23.25;20.60;;;1.60;99.90;;;;;;5094108;28;20055;-74
2022/03/01 06:00:02;;;;;;;23.55;21.02;;;1.60;99.90;;;;;;5093950;28;20052;-73
2022/03/01 06:02:28;;;;;;;23.52;21.02;;;1.50;99.90;;;;;;5095780;28;20134;-74
2022/03/01 06:04:54;;;;;;;24.73;20.55;;;1.60;99.90;;;;;;5095067;28;20110;-73
2022/03/01 06:07:20;;;;;;;24.27;20.88;;;1.60;99.90;;;;;;5095700;28;20048;-73
2022/03/01 06:09:45;;;;;;;25.17;21.40;;;1.60;99.90;;;;;;5094271;28;20040;-73
2022/03/01 06:12:11;;;;;;;24.75;22.10;;;1.50;99.90;;;;;;5094972;28;20043;-74
2022/03/01 06:14:37;;;;;;;26.13;21.50;;;1.60;99.90;;;;;;5095454;28;20197;-74
2022/03/01 06:17:04;;;;;;;23.73;21.00;;;1.60;99.90;;;;;;5094620;28;20067;-73
2022/03/01 06:19:29;;;;;;;24.45;20.63;;;1.60;99.90;;;;;;5093847;28;20065;-74
2022/03/01 06:21:56;;;;;;;24.25;21.65;;;1.60;99.90;;;;;;5094795;28;20054;-73
2022/03/01 06:24:23;;;;;;;24.48;21.67;;;1.60;99.90;;;;;;5095520;28;20036;-74
2022/03/01 06:26:49;;;;;;;25.67;22.33;;;1.60;99.90;;;;;;5095062;28;20054;-74
2022/03/01 06:29:15;;;;;;;23.40;20.55;;;1.60;99.90;;;;;;5094258;28;20703;-74
2022/03/01 06:31:40;;;;;;;24.58;21.90;;;1.60;99.90;;;;;;5094654;28;20067;-74
2022/03/01 06:34:06;;;;;;;24.08;21.48;;;1.70;99.90;;;;;;5094182;28;20052;-74
2022/03/01 06:36:32;;;;;;;26.75;21.83;;;1.70;99.90;;;;;;5095252;28;20508;-74
2022/03/01 06:38:58;;;;;;;26.50;21.15;;;1.70;99.90;;;;;;5094120;28;20468;-73
2022/03/01 06:41:23;;;;;;;24.65;21.90;;;1.70;99.90;;;;;;5095027;28;20052;-74
2022/03/01 06:43:49;;;;;;;24.10;21.55;;;1.70;99.90;;;;;;5094981;28;20504;-74
2022/03/01 06:46:15;;;;;;;23.85;21.10;;;1.70;99.90;;;;;;5094352;28;20134;-73
2022/03/01 06:48:41;;;;;;;24.40;21.65;;;1.70;99.90;;;;;;5094881;28;20048;-74
2022/03/01 06:51:09;;;;;;;23.38;20.88;;;1.70;99.90;;;;;;5093621;28;20674;-74
2022/03/01 06:53:36;;;;;;;23.42;20.50;;;1.80;99.90;;;;;;5094667;28;20040;-74
2022/03/01 06:56:02;;;;;;;24.20;21.42;;;1.80;99.90;;;;;;5092567;28;20385;-74
2022/03/01 06:58:29;;;;;;;23.58;20.92;;;1.80;99.90;;;;;;5092870;28;20043;-74
2022/03/01 07:00:56;;;;;;;24.27;21.67;;;1.70;99.90;;;;;;5094607;28;20052;-74
2022/03/01 07:03:22;;;;;;;23.48;20.92;;;1.70;99.90;;;;;;5093753;28;20048;-74
2022/03/01 07:05:48;;;;;;;22.75;20.15;;;1.80;99.90;;;;;;5093785;28;20044;-74
2022/03/01 07:08:13;;;;;;;24.40;21.17;;;1.80;99.90;;;;;;5093347;28;20054;-74
2022/03/01 07:10:41;;;;;;;22.88;20.45;;;1.80;99.90;;;;;;5094410;28;20044;-74
2022/03/01 07:13:07;;;;;;;23.45;20.00;;;1.90;99.90;;;;;;5093769;28;20139;-74
2022/03/01 07:15:35;;;;;;;24.02;21.00;;;2.00;99.90;;;;;;5094222;28;20047;-74
2022/03/01 07:18:01;;;;;;;23.88;20.63;;;2.00;99.90;;;;;;5093319;28;20044;-73
2022/03/01 07:20:27;;;;;;;25.15;21.55;;;2.10;99.90;;;;;;5093667;28;20042;-74
2022/03/01 07:22:53;;;;;;;22.90;20.38;;;2.20;99.90;;;;;;5094145;28;20048;-74
2022/03/01 07:25:19;;;;;;;23.27;20.67;;;2.30;99.90;;;;;;5093217;28;20077;-74
2022/03/01 07:27:49;;;;;;;23.10;20.65;;;2.40;99.90;;;;;;5093994;28;20577;-74
2022/03/01 07:30:16;;;;;;;22.42;20.00;;;2.50;99.90;;;;;;5093159;28;20048;-74
2022/03/01 07:32:42;;;;;;;25.45;21.48;;;2.60;99.90;;;;;;5093086;28;20072;-74
2022/03/01 07:35:08;;;;;;;24.38;21.05;;;2.70;99.90;;;;;;5093284;28;20452;-74
2022/03/01 07:37:34;;;;;;;23.35;20.58;;;2.80;99.90;;;;;;5094024;28;20040;-74
2022/03/01 07:40:01;;;;;;;23.50;21.00;;;2.90;99.90;;;;;;5093531;28;20083;-74
2022/03/01 07:42:26;;;;;;;24.85;21.23;;;3.00;99.90;;;;;;5092864;28;20063;-74
2022/03/01 07:44:52;;;;;;;23.15;20.65;;;3.10;99.90;;;;;;5093735;28;20497;-74
2022/03/01 07:47:18;;;;;;;23.48;20.92;;;3.20;99.90;;;;;;5093176;28;20054;-74
2022/03/01 07:49:44;;;;;;;24.05;21.17;;;3.20;99.90;;;;;;5093568;28;20123;-74
2022/03/01 07:52:10;;;;;;;22.42;19.90;;;3.30;99.90;;;;;;5092353;28;20050;-74
2022/03/01 07:54:35;;;;;;;23.85;20.15;;;3.40;99.90;;;;;;5093281;28;20040;-74
2022/03/01 07:57:01;;;;;;;23.83;21.38;;;3.40;99.90;;;;;;5093318;28;20048;-74
2022/03/01 07:59:27;;;;;;;22.67;20.23;;;3.50;99.90;;;;;;5092657;28;20147;-74
2022/03/01 08:01:54;;;;;;;23.83;19.98;;;3.60;99.90;;;;;;5092989;28;20475;-74
2022/03/01 08:04:20;;;;;;;22.40;20.08;;;3.70;99.90;;;;;;5092419;28;20048;-74
2022/03/01 08:06:46;;;;;;;23.58;20.95;;;3.80;99.90;;;;;;5093388;28;20097;-74
2022/03/01 08:09:11;;;;;;;23.25;20.50;;;3.80;99.90;;;;;;5092738;28;20055;-74
2022/03/01 08:11:37;;;;;;;22.63;20.23;;;4.00;99.90;;;;;;5091879;28;20040;-74
2022/03/01 08:14:03;;;;;;;22.38;20.00;;;4.10;99.90;;;;;;5092927;28;20040;-74
2022/03/01 08:16:29;;;;;;;22.13;19.73;;;4.20;99.90;;;;;;5091452;28;20052;-74
2022/03/01 08:18:55;;;;;;;21.40;18.90;;;4.30;99.90;;;;;;5093204;28;20051;-73
2022/03/01 08:21:20;;;;;;;22.80;20.10;;;4.40;99.90;;;;;;5091040;28;20082;-75
2022/03/01 08:23:46;;;;;;;23.98;20.40;;;4.60;99.90;;;;;;5093139;28;20051;-75
2022/03/01 08:26:12;;;;;;;22.38;19.98;;;4.70;99.90;;;;;;5092485;28;20073;-74
2022/03/01 08:28:40;;;;;;;22.20;19.35;;;4.80;99.90;;;;;;5092974;28;20087;-75
2022/03/01 08:31:06;;;;;;;23.60;20.65;;;4.90;99.90;;;;;;5093036;28;20091;-74
2022/03/01 08:33:33;;;;;;;22.55;19.70;;;5.00;99.90;;;;;;5092348;28;20075;-73
2022/03/01 08:35:59;;;;;;;22.92;20.48;;;5.00;99.90;;;;;;5091533;28;20044;-74
2022/03/01 08:38:26;;;;;;;22.20;19.80;;;5.10;99.90;;;;;;5092357;28;20417;-74
2022/03/01 08:40:52;;;;;;;22.40;20.02;;;5.10;99.90;;;;;;5092895;28;20052;-73
2022/03/01 08:43:20;;;;;;;23.38;19.98;;;5.20;99.90;;;;;;5091577;28;20047;-74
2022/03/01 08:45:46;;;;;;;22.67;20.23;;;5.10;99.90;;;;;;5092500;28;20044;-74
2022/03/01 08:48:11;;;;;;;23.10;20.08;;;5.20;99.90;;;;;;5092143;28;20554;-74
2022/03/01 08:50:37;;;;;;;21.90;19.60;;;5.20;99.90;;;;;;5092769;28;20083;-74
2022/03/01 08:53:03;;;;;;;22.80;19.70;;;5.20;99.90;;;;;;5091715;28;20405;-74
2022/03/01 08:55:29;;;;;;;22.27;19.85;;;5.10;99.90;;;;;;5091939;28;20304;-74
2022/03/01 08:57:56;;;;;;;20.73;18.52;;;5.10;99.90;;;;;;5092465;28;20050;-74
2022/03/01 09:00:22;;;;;;;22.05;19.60;;;5.10;99.90;;;;;;5091738;28;20055;-73
2022/03/01 09:02:47;;;;;;;21.80;19.35;;;5.10;99.90;;;;;;5092853;28;20424;-74
2022/03/01 09:05:13;;;;;;;22.10;19.52;;;5.20;99.90;;;;;;5091784;28;20481;-74
2022/03/01 09:07:39;;;;;;;21.35;19.15;;;5.20;99.90;;;;;;5083156;28;20611;-74
2022/03/01 09:10:06;;;;;;;22.52;19.92;;;5.30;99.90;;;;;;5086916;28;20036;-74
2022/03/01 09:12:32;;;;;;;21.98;19.63;;;5.40;99.90;;;;;;5077632;28;20036;-74
2022/03/01 09:14:58;;;;;;;21.30;19.00;;;5.50;99.90;;;;;;5088938;28;20055;-74
2022/03/01 09:17:24;;;;;;;21.98;19.70;;;5.60;99.90;;;;;;5088952;28;20051;-74
2022/03/01 09:19:50;;;;;;;23.83;19.95;;;5.80;99.90;;;;;;5089974;28;20040;-74
2022/03/01 09:22:16;;;;;;;21.90;19.52;;;5.90;99.90;;;;;;5088283;28;20066;-74
2022/03/01 09:24:42;;;;;;;22.05;19.65;;;6.00;99.70;;;;;;5089534;28;20047;-74
2022/03/01 09:27:08;;;;;;;22.70;19.48;;;6.20;99.90;;;;;;5090083;28;20040;-74
2022/03/01 09:29:34;;;;;;;21.52;18.98;;;6.40;99.20;;;;;;5092271;28;20083;-74
2022/03/01 09:32:00;;;;;;;22.48;20.08;;;6.60;98.70;;;;;;5092934;28;20588;-74
2022/03/01 09:34:25;;;;;;;21.35;19.13;;;6.70;97.60;;;;;;5092492;28;20040;-74
2022/03/01 09:36:52;;;;;;;21.95;19.02;;;6.80;97.20;;;;;;5093617;28;20056;-74
2022/03/01 09:39:18;;;;;;;22.02;19.63;;;6.90;97.30;;;;;;5090157;28;20058;-74
2022/03/01 09:41:44;;;;;;;22.40;20.00;;;7.20;96.50;;;;;;5092923;28;20181;-74
2022/03/01 09:44:10;;;;;;;22.20;19.75;;;7.50;96.30;;;;;;5092978;28;20123;-74
2022/03/01 09:46:38;;;;;;;22.02;19.75;;;7.80;94.60;;;;;;5090564;28;20044;-74
2022/03/01 09:49:06;;;;;;;22.15;19.73;;;7.90;93.60;;;;;;5093094;28;20048;-74
2022/03/01 09:51:35;;;;;;;19.83;17.70;;;7.90;93.10;;;;;;5092419;28;20081;-74
2022/03/01 09:54:02;;;;;;;19.48;17.40;;;8.00;92.40;;;;;;5073297;28;20059;-74
2022/03/01 09:56:28;;;;;;;21.70;18.58;;;8.00;91.70;;;;;;5076240;28;20071;-74
2022/03/01 09:58:55;;;;;;;19.98;17.52;;;8.20;92.50;;;;;;5072634;28;20377;-74
2022/03/01 10:01:22;;;;;;;18.48;16.58;;;8.40;91.60;;;;;;5077626;28;20075;-74
2022/03/01 10:03:49;;;;;;;17.73;15.90;;;8.70;89.50;;;;;;5080357;28;20074;-74
2022/03/01 10:06:17;;;;;;;17.60;15.80;;;8.90;86.90;;;;;;5084466;28;20461;-74
2022/03/01 10:08:44;;;;;;;18.48;16.50;;;9.20;85.60;;;;;;5091691;28;20040;-74
2022/03/01 10:11:11;;;;;;;18.85;16.65;;;9.40;86.30;;;;;;5092183;28;20052;-74
2022/03/01 10:13:40;;;;;;;19.33;17.00;;;9.60;83.50;;;;;;5090856;28;20355;-74
2022/03/01 10:16:16;;;;;;;18.77;16.77;;;9.70;82.40;;;;;;5092051;28;20098;-74
2022/03/01 10:18:52;;;;;;;20.05;16.85;;;9.80;82.70;;;;;;5092486;28;20072;-74
2022/03/01 10:21:20;;;;;;;17.45;15.65;;;9.80;79.90;;;;;;5090183;28;20055;-74
2022/03/01 10:23:48;;;;;;;18.17;16.25;;;9.70;79.40;;;;;;5090907;28;20048;-74
2022/03/01 10:26:18;;;;;;;18.30;16.40;;;9.70;78.40;;;;;;5089309;28;20097;-74
2022/03/01 10:28:45;;;;;;;18.23;16.38;;;9.50;79.00;;;;;;5092326;28;20089;-74
2022/03/01 10:31:14;;;;;;;19.60;16.70;;;9.40;80.00;;;;;;5091453;28;20076;-74
2022/03/01 10:33:51;;;;;;;19.25;17.27;;;9.20;80.80;;;;;;5091787;28;20054;-74
2022/03/01 10:36:21;;;;;;;18.30;16.40;;;9.20;82.00;;;;;;5091820;28;20044;-75
2022/03/01 10:39:14;;;;;;;17.65;15.85;;;9.10;81.40;;;;;;5091597;28;20048;-74
2022/03/01 10:41:42;;;;;;;21.35;17.73;;;9.20;80.30;;;;;;5085524;28;20051;-74
2022/03/01 10:44:21;;;;;;;18.33;16.45;;;9.30;82.10;;;;;;5091419;28;20401;-74
2022/03/01 10:46:55;;;;;;;18.30;16.40;;;9.50;80.80;;;;;;5091985;28;20083;-74
2022/03/01 10:49:23;;;;;;;18.10;16.27;;;9.50;81.10;;;;;;5091057;28;20044;-74
2022/03/01 10:51:51;;;;;;;18.58;16.58;;;9.60;81.50;;;;;;5091439;28;20056;-74
2022/03/01 10:54:31;;;;;;;18.08;16.13;;;9.70;80.60;;;;;;5091246;28;20424;-74
2022/03/01 10:56:58;;;;;;;18.73;16.63;;;9.90;78.90;;;;;;5092043;28;20051;-74
2022/03/01 10:59:27;;;;;;;17.92;16.02;;;9.90;79.30;;;;;;5090800;28;20448;-74
2022/03/01 11:01:53;;;;;;;17.73;15.93;;;10.00;77.60;;;;;;5091153;28;20131;-74
2022/03/01 11:04:24;;;;;;;18.42;16.55;;;10.00;78.10;;;;;;5091468;28;20083;-74
2022/03/01 11:06:51;;;;;;;18.50;16.60;;;10.00;78.30;;;;;;5090621;28;20044;-74
2022/03/01 11:09:17;;;;;;;19.00;17.10;;;10.10;78.40;;;;;;5091361;28;20040;-74
2022/03/01 11:11:44;;;;;;;18.20;16.30;;;10.00;77.50;;;;;;5091171;28;20040;-74
2022/03/01 11:14:14;;;;;;;18.00;16.10;;;10.00;76.60;;;;;;5090542;28;20040;-74
2022/03/01 11:17:00;;;;;;;17.65;15.82;;;10.00;75.70;;;;;;5090962;28;20131;-74
2022/03/01 11:19:44;;;;;;;17.48;15.70;;;9.90;76.60;;;;;;5082194;28;20098;-74
2022/03/01 11:22:23;;;;;;;18.25;16.38;;;9.90;75.90;;;;;;5088119;28;20048;-74
2022/03/01 11:24:49;;;;;;;18.10;16.20;;;10.00;76.60;;;;;;5093634;28;20040;-74
2022/03/01 11:27:20;;;;;;;18.52;16.42;;;10.10;77.40;;;;;;5093913;28;20119;-74
2022/03/01 11:29:46;;;;;;;17.65;15.77;;;10.20;76.80;;;;;;5088781;28;20127;-74
2022/03/01 11:32:15;;;;;;;17.63;15.75;;;10.30;77.30;;;;;;5094146;28;20123;-77
2022/03/01 11:34:41;;;;;;;17.13;15.32;;;10.30;76.30;;;;;;5093490;28;20462;-74
2022/03/01 11:37:17;;;;;;;20.13;16.17;;;10.40;74.70;;;;;;5093120;28;20097;-74
2022/03/01 11:39:43;;;;;;;18.15;16.25;;;10.40;73.60;;;;;;5082977;28;20047;-74
2022/03/01 11:42:16;;;;;;;17.60;15.73;;;10.60;75.50;;;;;;5072108;28;20045;-71
2022/03/01 11:44:47;;;;;;;16.15;14.25;;;10.70;74.90;;;;;;5067144;28;20040;-74
2022/03/01 11:47:26;;;;;;;16.45;14.75;;;10.90;74.80;;;;;;5084662;28;20474;-74
2022/03/01 11:49:52;;;;;;;15.73;13.95;;;11.00;73.70;;;;;;5090026;28;20065;-74
2022/03/01 11:52:20;;;;;;;15.90;14.27;;;10.90;72.10;;;;;;5088474;28;20036;-74
2022/03/01 11:54:48;;;;;;;15.65;14.10;;;10.90;73.10;;;;;;5089749;28;20105;-74
2022/03/01 11:57:14;;;;;;;16.15;14.55;;;10.90;72.10;;;;;;5084695;28;20044;-74
2022/03/01 11:59:41;;;;;;;15.93;14.18;;;10.90;72.20;;;;;;5087950;28;20481;-74
2022/03/01 12:02:09;;;;;;;15.50;13.88;;;10.80;71.00;;;;;;5087545;28;20084;-74
2022/03/01 12:04:47;;;;;;;15.90;14.30;;;10.80;70.60;;;;;;5089485;28;20046;-74
2022/03/01 12:07:39;;;;;;;16.13;13.90;;;10.70;70.00;;;;;;5088226;28;20044;-74
2022/03/01 12:10:05;;;;;;;15.85;14.15;;;10.70;69.30;;;;;;5085148;28;20058;-74
2022/03/01 12:12:35;;;;;;;15.32;13.73;;;10.70;71.50;;;;;;5085801;28;20048;-74
2022/03/01 12:15:01;;;;;;;16.17;14.55;;;10.60;71.50;;;;;;5088454;28;20389;-74
2022/03/01 12:17:27;;;;;;;15.68;14.10;;;10.60;71.70;;;;;;5090035;28;20078;-74
2022/03/01 12:20:00;;;;;;;16.02;14.40;;;10.60;70.00;;;;;;5084008;28;20039;-74
2022/03/01 12:22:26;;;;;;;16.35;14.77;;;10.50;70.60;;;;;;5088807;28;20500;-74
2022/03/01 12:24:52;;;;;;;16.50;14.77;;;10.50;72.00;;;;;;5086582;28;20048;-74
2022/03/01 12:27:18;;;;;;;15.60;14.00;;;10.50;72.90;;;;;;5085049;28;20043;-74
2022/03/01 12:29:46;;;;;;;16.50;14.80;;;10.50;72.00;;;;;;5089118;28;20048;-74
2022/03/01 12:32:13;;;;;;;16.17;14.57;;;10.50;72.50;;;;;;5093382;28;20076;-74
2022/03/01 12:34:41;;;;;;;16.98;15.27;;;10.50;72.80;;;;;;5086847;28;20079;-74
2022/03/01 12:37:10;;;;;;;16.70;14.90;;;10.50;72.10;;;;;;5087462;28;20110;-74